createdAt,value
2023-05-20T00:00:59.201Z,97997.53
2023-05-20T00:03:26.972Z,98009.47
2023-05-20T00:05:54.652Z,98000.47
2023-05-20T00:08:22.150Z,97999.66
2023-05-20T00:10:51.110Z,97996.13
2023-05-20T00:13:18.654Z,98000.00
2023-05-20T00:15:46.596Z,97998.94
2023-05-20T00:18:14.063Z,97992.66
2023-05-20T00:20:41.620Z,98000.63
2023-05-20T00:23:09.269Z,97994.31
2023-05-20T00:25:36.977Z,97994.84
2023-05-20T00:28:07.161Z,97986.69
2023-05-20T00:30:34.675Z,97991.75
2023-05-20T00:33:02.303Z,97984.69
2023-05-20T00:35:30.001Z,97996.75
2023-05-20T00:37:57.486Z,97985.28
2023-05-20T00:40:25.951Z,97980.22
2023-05-20T00:42:53.450Z,97983.38
2023-05-20T00:45:22.302Z,97992.53
2023-05-20T00:47:49.941Z,97978.09
2023-05-20T00:50:18.401Z,97984.22
2023-05-20T00:52:48.245Z,97986.44
2023-05-20T00:55:15.925Z,97990.78
2023-05-20T00:57:43.564Z,97975.88
2023-05-20T01:00:13.612Z,97984.16
2023-05-20T01:02:42.602Z,97992.13
2023-05-20T01:05:10.843Z,97975.28
2023-05-20T01:07:39.129Z,97979.84
2023-05-20T01:10:07.722Z,97983.38
2023-05-20T01:12:40.295Z,97970.09
2023-05-20T01:15:10.769Z,97985.13
2023-05-20T01:17:44.828Z,97973.47
2023-05-20T01:20:14.166Z,97971.19
2023-05-20T01:22:49.694Z,97973.06
2023-05-20T01:25:17.410Z,97959.31
2023-05-20T01:27:45.413Z,97970.16
2023-05-20T01:30:14.056Z,97961.28
2023-05-20T01:32:47.664Z,97959.59
2023-05-20T01:35:16.904Z,97966.69
2023-05-20T01:37:45.129Z,97966.25
2023-05-20T01:40:16.550Z,97968.09
2023-05-20T01:42:45.932Z,97961.84
2023-05-20T01:45:13.618Z,97961.25
2023-05-20T01:47:41.222Z,97962.88
2023-05-20T01:50:09.820Z,97958.38
2023-05-20T01:52:37.364Z,97957.94
2023-05-20T01:55:05.228Z,97959.00
2023-05-20T01:57:34.115Z,97957.31
2023-05-20T02:00:01.745Z,97955.66
2023-05-20T02:02:29.547Z,97946.13
2023-05-20T02:04:57.205Z,97943.19
2023-05-20T02:07:24.861Z,97952.31
2023-05-20T02:09:52.351Z,97948.34
2023-05-20T02:12:19.834Z,97946.13
2023-05-20T02:14:50.241Z,97944.88
2023-05-20T02:17:18.351Z,97947.59
2023-05-20T02:19:46.622Z,97945.50
2023-05-20T02:22:14.154Z,97943.44
2023-05-20T02:24:43.171Z,97938.88
2023-05-20T02:27:10.948Z,97933.44
2023-05-20T02:29:38.481Z,97933.69
2023-05-20T02:32:08.860Z,97925.78
2023-05-20T02:34:36.395Z,97928.69
2023-05-20T02:37:03.983Z,97926.00
2023-05-20T02:39:31.623Z,97927.47
2023-05-20T02:41:59.332Z,97927.25
2023-05-20T02:44:26.962Z,97933.50
2023-05-20T02:46:54.497Z,97931.00
2023-05-20T02:49:24.237Z,97939.78
2023-05-20T02:51:51.740Z,97944.59
2023-05-20T02:54:19.279Z,97949.94
2023-05-20T02:56:46.772Z,97951.81
2023-05-20T02:59:14.351Z,97946.34
2023-05-20T03:01:41.923Z,97957.84
2023-05-20T03:04:09.721Z,97941.41
2023-05-20T03:06:38.845Z,97951.63
2023-05-20T03:09:06.345Z,97947.06
2023-05-20T03:11:33.929Z,97947.00
2023-05-20T03:14:01.620Z,97939.53
2023-05-20T03:16:29.357Z,97950.56
2023-05-20T03:18:56.945Z,97952.59
2023-05-20T03:21:25.147Z,97950.78
2023-05-20T03:23:54.020Z,97947.28
2023-05-20T03:26:23.131Z,97955.38
2023-05-20T03:28:50.732Z,97955.38
2023-05-20T03:31:19.165Z,97956.63
2023-05-20T03:33:47.080Z,97950.00
2023-05-20T03:36:14.587Z,97948.91
2023-05-20T03:38:42.237Z,97958.25
2023-05-20T03:41:11.387Z,97956.59
2023-05-20T03:43:38.892Z,97960.31
2023-05-20T03:46:06.569Z,97954.09
2023-05-20T03:48:34.121Z,97953.91
2023-05-20T03:51:01.931Z,97950.31
2023-05-20T03:53:29.511Z,97951.81
2023-05-20T03:55:57.105Z,97948.75
2023-05-20T03:58:26.260Z,97952.44
2023-05-20T04:00:53.803Z,97953.28
2023-05-20T04:03:22.835Z,97952.44
2023-05-20T04:05:50.582Z,97963.25
2023-05-20T04:08:18.764Z,97959.25
2023-05-20T04:10:46.872Z,97961.34
2023-05-20T04:13:14.807Z,97965.28
2023-05-20T04:15:44.267Z,97965.06
2023-05-20T04:18:13.792Z,97960.34
2023-05-20T04:20:42.126Z,97956.16
2023-05-20T04:23:09.725Z,97959.31
2023-05-20T04:25:37.420Z,97954.94
2023-05-20T04:28:05.381Z,97953.09
2023-05-20T04:30:33.364Z,97949.78
2023-05-20T04:33:03.483Z,97948.47
2023-05-20T04:35:31.611Z,97944.53
2023-05-20T04:37:59.289Z,97951.16
2023-05-20T04:40:27.378Z,97954.47
2023-05-20T04:42:55.795Z,97947.81
2023-05-20T04:45:23.910Z,97949.66
2023-05-20T04:47:53.225Z,97944.13
2023-05-20T04:50:22.304Z,97944.09
2023-05-20T04:52:50.478Z,97949.78
2023-05-20T04:55:18.508Z,97943.31
2023-05-20T04:57:46.443Z,97946.22
2023-05-20T05:00:14.721Z,97939.47
2023-05-20T05:02:42.453Z,97948.03
2023-05-20T05:05:10.433Z,97939.28
2023-05-20T05:07:39.327Z,97941.28
2023-05-20T05:10:07.769Z,97941.28
2023-05-20T05:12:35.459Z,97927.66
2023-05-20T05:15:03.014Z,97933.06
2023-05-20T05:17:30.507Z,97937.56
2023-05-20T05:19:58.032Z,97921.75
2023-05-20T05:22:25.550Z,97931.56
2023-05-20T05:24:55.640Z,97917.94
2023-05-20T05:27:23.817Z,97925.88
2023-05-20T05:29:51.322Z,97917.59
2023-05-20T05:32:19.005Z,97922.56
2023-05-20T05:34:46.690Z,97913.81
2023-05-20T05:37:14.194Z,97910.16
2023-05-20T05:39:41.699Z,97909.50
2023-05-20T05:42:10.565Z,97918.59
2023-05-20T05:44:38.081Z,97921.94
2023-05-20T05:47:06.786Z,97915.06
2023-05-20T05:49:34.905Z,97915.34
2023-05-20T05:52:02.407Z,97908.69
2023-05-20T05:54:29.999Z,97913.28
2023-05-20T05:56:57.801Z,97911.22
2023-05-20T05:59:26.752Z,97914.41
2023-05-20T06:01:54.269Z,97918.88
2023-05-20T06:04:21.931Z,97916.44
2023-05-20T06:06:49.871Z,97914.81
2023-05-20T06:09:17.532Z,97907.59
2023-05-20T06:11:45.010Z,97908.56
2023-05-20T06:14:12.646Z,97895.72
2023-05-20T06:16:41.574Z,97884.22
2023-05-20T06:19:09.485Z,97885.66
2023-05-20T06:21:37.284Z,97880.03
2023-05-20T06:24:05.152Z,97884.38
2023-05-20T06:26:32.767Z,97880.47
2023-05-20T06:29:00.389Z,97870.66
2023-05-20T06:31:29.954Z,97871.94
2023-05-20T06:33:59.021Z,97875.34
2023-05-20T06:36:28.963Z,97867.00
2023-05-20T06:38:56.497Z,97870.97
2023-05-20T06:41:23.982Z,97860.63
2023-05-20T06:43:53.490Z,97867.47
2023-05-20T06:46:21.202Z,97864.78
2023-05-20T06:48:48.883Z,97861.84
2023-05-20T06:51:17.822Z,97857.53
2023-05-20T06:53:45.456Z,97851.53
2023-05-20T06:56:13.246Z,97859.91
2023-05-20T06:58:40.719Z,97856.19
2023-05-20T07:01:08.255Z,97862.47
2023-05-20T07:03:35.983Z,97846.59
2023-05-20T07:06:03.816Z,97858.25
2023-05-20T07:08:32.736Z,97856.09
2023-05-20T07:11:00.273Z,97851.03
2023-05-20T07:13:27.792Z,97849.31
2023-05-20T07:15:55.409Z,97853.19
2023-05-20T07:18:23.008Z,97842.25
2023-05-20T07:20:50.646Z,97840.69
2023-05-20T07:23:18.188Z,97849.91
2023-05-20T07:25:47.076Z,97852.16
2023-05-20T07:28:16.813Z,97838.59
2023-05-20T07:30:46.434Z,97835.16
2023-05-20T07:33:13.922Z,97821.84
2023-05-20T07:35:41.464Z,97821.72
2023-05-20T07:38:08.985Z,97841.56
2023-05-20T07:40:38.848Z,97830.03
2023-05-20T07:43:08.307Z,97828.03
2023-05-20T07:45:36.777Z,97835.03
2023-05-20T07:48:05.140Z,97829.91
2023-05-20T07:50:32.741Z,97818.44
2023-05-20T07:53:00.285Z,97817.63
2023-05-20T07:55:27.935Z,97820.06
2023-05-20T07:57:55.697Z,97817.06
2023-05-20T08:00:24.753Z,97821.03
2023-05-20T08:02:52.432Z,97819.63
2023-05-20T08:05:20.299Z,97820.97
2023-05-20T08:07:49.832Z,97803.88
2023-05-20T08:10:17.382Z,97796.84
2023-05-20T08:12:44.984Z,97800.19
2023-05-20T08:15:13.045Z,97794.06
2023-05-20T08:17:41.967Z,97790.28
2023-05-20T08:20:10.783Z,97784.75
2023-05-20T08:22:38.384Z,97785.31
2023-05-20T08:25:11.143Z,97781.59
2023-05-20T08:27:38.708Z,97786.66
2023-05-20T08:30:08.122Z,97784.41
2023-05-20T08:32:35.751Z,97783.44
2023-05-20T08:35:05.282Z,97784.00
2023-05-20T08:37:32.818Z,97787.19
2023-05-20T08:40:00.698Z,97784.41
2023-05-20T08:42:28.247Z,97791.25
2023-05-20T08:44:57.691Z,97788.53
2023-05-20T08:47:25.569Z,97787.47
2023-05-20T08:49:53.104Z,97786.28
2023-05-20T08:52:22.942Z,97777.78
2023-05-20T08:54:51.575Z,97780.75
2023-05-20T08:57:20.332Z,97785.13
2023-05-20T08:59:48.169Z,97782.16
2023-05-20T09:02:16.186Z,97772.34
2023-05-20T09:04:43.839Z,97780.31
2023-05-20T09:07:11.806Z,97777.47
2023-05-20T09:09:41.236Z,97770.06
2023-05-20T09:12:08.840Z,97784.69
2023-05-20T09:14:36.366Z,97772.38
2023-05-20T09:17:05.571Z,97769.56
2023-05-20T09:19:34.888Z,97790.59
2023-05-20T09:22:05.042Z,97795.44
2023-05-20T09:24:32.572Z,97788.94
2023-05-20T09:27:01.507Z,97790.00
2023-05-20T09:29:29.044Z,97788.69
2023-05-20T09:31:57.053Z,97792.44
2023-05-20T09:34:24.765Z,97783.88
2023-05-20T09:36:52.742Z,97787.50
2023-05-20T09:39:25.928Z,97778.19
2023-05-20T09:41:57.430Z,97782.66
2023-05-20T09:44:28.861Z,97775.56
2023-05-20T09:46:58.853Z,97780.94
2023-05-20T09:49:27.815Z,97782.59
2023-05-20T09:51:57.104Z,97765.28
2023-05-20T09:54:25.609Z,97778.34
2023-05-20T09:56:54.539Z,97781.78
2023-05-20T09:59:23.272Z,97770.81
2023-05-20T10:01:52.106Z,97763.16
2023-05-20T10:04:22.717Z,97755.06
2023-05-20T10:07:37.988Z,97759.88
2023-05-20T10:10:21.519Z,97749.44
2023-05-20T10:12:56.826Z,97764.84
2023-05-20T10:15:31.876Z,97750.88
2023-05-20T10:18:14.358Z,97760.38
2023-05-20T10:20:48.494Z,97741.25
2023-05-20T10:23:23.516Z,97735.53
2023-05-20T10:25:54.765Z,97741.59
2023-05-20T10:28:33.352Z,97738.41
2023-05-20T10:31:01.725Z,97741.44
2023-05-20T10:33:31.409Z,97739.63
2023-05-20T10:36:00.343Z,97737.63
2023-05-20T10:38:27.871Z,97742.63
2023-05-20T10:40:57.230Z,97734.91
2023-05-20T10:43:28.492Z,97732.09
2023-05-20T10:45:57.746Z,97730.47
2023-05-20T10:48:26.640Z,97726.97
2023-05-20T10:50:58.003Z,97723.44
2023-05-20T10:53:34.111Z,97715.28
2023-05-20T10:56:02.391Z,97712.69
2023-05-20T10:58:38.295Z,97710.59
2023-05-20T11:01:06.208Z,97721.09
2023-05-20T11:03:35.934Z,97707.22
2023-05-20T11:06:12.498Z,97713.09
2023-05-20T11:08:40.409Z,97708.69
2023-05-20T11:11:08.412Z,97709.22
2023-05-20T11:13:36.348Z,97701.38
2023-05-20T11:16:04.716Z,97695.28
2023-05-20T11:18:32.475Z,97694.06
2023-05-20T11:21:00.453Z,97701.69
2023-05-20T11:23:30.224Z,97679.84
2023-05-20T11:25:58.746Z,97708.47
2023-05-20T11:28:26.533Z,97692.41
2023-05-20T11:30:54.705Z,97688.38
2023-05-20T11:33:22.853Z,97680.44
2023-05-20T11:35:52.711Z,97690.38
2023-05-20T11:38:21.513Z,97689.00
2023-05-20T11:40:53.747Z,97683.06
2023-05-20T11:43:22.773Z,97678.44
2023-05-20T11:45:55.235Z,97675.53
2023-05-20T11:48:24.823Z,97672.50
2023-05-20T11:50:55.720Z,97665.44
2023-05-20T11:53:26.885Z,97647.66
2023-05-20T11:55:57.622Z,97659.69
2023-05-20T11:58:26.530Z,97675.72
2023-05-20T12:00:59.436Z,97673.78
2023-05-20T12:03:37.367Z,97686.44
2023-05-20T12:06:05.575Z,97679.34
2023-05-20T12:08:33.010Z,97666.44
2023-05-20T12:11:02.232Z,97680.34
2023-05-20T12:13:29.786Z,97675.56
2023-05-20T12:15:57.556Z,97685.25
2023-05-20T12:18:25.184Z,97686.53
2023-05-20T12:20:52.777Z,97690.06
2023-05-20T12:23:21.322Z,97675.13
2023-05-20T12:25:49.971Z,97682.47
2023-05-20T12:28:20.128Z,97671.28
2023-05-20T12:30:47.879Z,97686.03
2023-05-20T12:33:15.534Z,97678.97
2023-05-20T12:35:44.439Z,97668.41
2023-05-20T12:38:12.094Z,97667.00
2023-05-20T12:40:39.643Z,97672.28
2023-05-20T12:43:07.289Z,97667.00
2023-05-20T12:45:36.171Z,97675.69
2023-05-20T12:48:03.862Z,97668.09
2023-05-20T12:50:31.415Z,97670.81
2023-05-20T12:52:58.907Z,97664.84
2023-05-20T12:55:28.863Z,97665.06
2023-05-20T12:57:56.939Z,97668.88
2023-05-20T13:00:24.435Z,97678.38
2023-05-20T13:02:54.646Z,97674.91
2023-05-20T13:05:23.083Z,97663.09
2023-05-20T13:07:50.669Z,97668.56
2023-05-20T13:10:18.360Z,97668.56
2023-05-20T13:12:46.282Z,97670.50
2023-05-20T13:15:14.501Z,97673.19
2023-05-20T13:17:45.605Z,97681.69
2023-05-20T13:20:14.914Z,97670.41
2023-05-20T13:22:42.592Z,97663.81
2023-05-20T13:25:10.525Z,97666.06
2023-05-20T13:27:38.106Z,97663.94
2023-05-20T13:30:06.812Z,97650.13
2023-05-20T13:32:34.491Z,97652.31
2023-05-20T13:35:02.065Z,97659.16
2023-05-20T13:37:30.991Z,97652.06
2023-05-20T13:39:58.622Z,97643.03
2023-05-20T13:42:26.224Z,97648.75
2023-05-20T13:44:53.778Z,97643.81
2023-05-20T13:47:21.349Z,97635.09
2023-05-20T13:49:51.025Z,97638.38
2023-05-20T13:52:18.588Z,97642.78
2023-05-20T13:54:48.635Z,97637.56
2023-05-20T13:57:16.256Z,97627.72
2023-05-20T13:59:43.992Z,97635.88
2023-05-20T14:02:11.792Z,97637.56
2023-05-20T14:04:39.546Z,97624.72
2023-05-20T14:07:09.566Z,97617.59
2023-05-20T14:09:37.798Z,97618.13
2023-05-20T14:12:09.415Z,97621.13
2023-05-20T14:14:37.043Z,97614.03
2023-05-20T14:17:04.954Z,97614.03
2023-05-20T14:19:32.742Z,97614.88
2023-05-20T14:22:02.323Z,97606.94
2023-05-20T14:24:29.883Z,97595.22
2023-05-20T14:26:57.653Z,97603.66
2023-05-20T14:29:26.538Z,97598.47
2023-05-20T14:31:54.170Z,97591.94
2023-05-20T14:34:22.126Z,97599.56
2023-05-20T14:36:49.885Z,97602.03
2023-05-20T14:39:17.653Z,97593.00
2023-05-20T14:41:45.204Z,97587.81
2023-05-20T14:44:13.119Z,97588.91
2023-05-20T14:46:42.075Z,97571.16
2023-05-20T14:49:09.784Z,97569.50
2023-05-20T14:51:37.291Z,97568.13
2023-05-20T14:54:05.941Z,97561.78
2023-05-20T14:56:33.547Z,97557.66
2023-05-20T14:59:01.087Z,97565.84
2023-05-20T15:01:28.676Z,97559.22
2023-05-20T15:03:57.715Z,97552.88
2023-05-20T15:06:25.445Z,97554.16
2023-05-20T15:08:53.566Z,97558.09
2023-05-20T15:11:21.315Z,97555.09
2023-05-20T15:13:51.153Z,97544.56
2023-05-20T15:16:19.238Z,97542.38
2023-05-20T15:18:48.684Z,97540.25
2023-05-20T15:21:17.565Z,97551.41
2023-05-20T15:23:45.183Z,97542.00
2023-05-20T15:26:12.966Z,97541.09
2023-05-20T15:28:41.124Z,97533.53
2023-05-20T15:31:08.662Z,97526.59
2023-05-20T15:33:36.362Z,97544.22
2023-05-20T15:36:04.552Z,97525.91
2023-05-20T15:38:33.455Z,97529.53
2023-05-20T15:41:00.940Z,97525.66
2023-05-20T15:43:28.459Z,97525.13
2023-05-20T15:45:56.003Z,97535.00
2023-05-20T15:48:23.665Z,97524.81
2023-05-20T15:50:51.381Z,97516.63
2023-05-20T15:53:19.215Z,97523.75
2023-05-20T15:55:48.315Z,97527.31
2023-05-20T15:58:15.822Z,97535.56
2023-05-20T16:00:43.356Z,97536.09
2023-05-20T16:03:11.673Z,97533.41
2023-05-20T16:05:39.442Z,97531.25
2023-05-20T16:08:07.118Z,97528.50
2023-05-20T16:10:35.008Z,97527.44
2023-05-20T16:13:05.636Z,97528.50
2023-05-20T16:15:36.324Z,97544.69
2023-05-20T16:18:04.399Z,97543.03
2023-05-20T16:20:32.355Z,97549.06
2023-05-20T16:23:00.105Z,97541.38
2023-05-20T16:25:30.482Z,97550.97
2023-05-20T16:28:00.884Z,97551.78
2023-05-20T16:30:29.896Z,97554.81
2023-05-20T16:32:57.541Z,97550.69
2023-05-20T16:35:25.314Z,97553.69
2023-05-20T16:37:52.837Z,97546.59
2023-05-20T16:40:20.585Z,97555.06
2023-05-20T16:42:48.109Z,97554.50
2023-05-20T16:45:15.672Z,97551.75
2023-05-20T16:47:44.672Z,97568.72
2023-05-20T16:50:12.673Z,97569.53
2023-05-20T16:52:40.153Z,97565.94
2023-05-20T16:55:08.429Z,97561.31
2023-05-20T16:57:36.450Z,97545.22
2023-05-20T17:00:07.463Z,97557.75
2023-05-20T17:02:36.075Z,97556.97
2023-05-20T17:05:05.528Z,97556.66
2023-05-20T17:07:35.495Z,97545.16
2023-05-20T17:10:03.207Z,97549.56
2023-05-20T17:12:31.064Z,97554.19
2023-05-20T17:14:58.575Z,97564.03
2023-05-20T17:17:26.103Z,97559.97
2023-05-20T17:19:54.653Z,97557.78
2023-05-20T17:22:23.501Z,97565.19
2023-05-20T17:24:51.182Z,97563.53
2023-05-20T17:27:18.720Z,97569.56
2023-05-20T17:29:47.209Z,97560.25
2023-05-20T17:32:14.781Z,97566.78
2023-05-20T17:34:42.347Z,97564.06
2023-05-20T17:37:09.950Z,97567.63
2023-05-20T17:39:38.791Z,97564.59
2023-05-20T17:42:06.754Z,97562.16
2023-05-20T17:44:37.137Z,97566.25
2023-05-20T17:47:04.883Z,97568.13
2023-05-20T17:49:32.416Z,97565.94
2023-05-20T17:51:59.902Z,97568.13
2023-05-20T17:54:27.635Z,97568.66
2023-05-20T17:56:56.571Z,97568.66
2023-05-20T17:59:24.136Z,97568.13
2023-05-20T18:01:52.606Z,97568.66
2023-05-20T18:04:21.729Z,97564.28
2023-05-20T18:06:49.415Z,97572.47
2023-05-20T18:09:17.390Z,97572.72
2023-05-20T18:11:44.868Z,97579.56
2023-05-20T18:14:13.764Z,97578.16
2023-05-20T18:16:41.491Z,97580.88
2023-05-20T18:19:09.041Z,97580.59
2023-05-20T18:21:37.368Z,97589.81
2023-05-20T18:24:04.999Z,97589.50
2023-05-20T18:26:32.545Z,97590.59
2023-05-20T18:29:00.166Z,97585.97
2023-05-20T18:31:30.999Z,97589.22
2023-05-20T18:33:58.470Z,97589.44
2023-05-20T18:36:30.431Z,97583.19
2023-05-20T18:38:58.406Z,97588.63
2023-05-20T18:41:32.389Z,97589.13
2023-05-20T18:44:14.024Z,97590.44
2023-05-20T18:46:45.505Z,97591.25
2023-05-20T18:49:13.245Z,97592.84
2023-05-20T18:51:41.053Z,97590.13
2023-05-20T18:54:09.031Z,97599.00
2023-05-20T18:56:36.516Z,97602.56
2023-05-20T18:59:06.962Z,97604.94
2023-05-20T19:01:36.331Z,97607.16
2023-05-20T19:04:05.985Z,97607.84
2023-05-20T19:06:34.794Z,97610.16
2023-05-20T19:09:02.432Z,97610.44
2023-05-20T19:11:30.017Z,97616.78
2023-05-20T19:13:59.358Z,97614.69
2023-05-20T19:16:27.314Z,97614.09
2023-05-20T19:18:54.952Z,97605.44
2023-05-20T19:21:23.888Z,97609.28
2023-05-20T19:23:51.724Z,97605.97
2023-05-20T19:26:19.469Z,97606.44
2023-05-20T19:28:46.994Z,97615.28
2023-05-20T19:31:20.626Z,97618.78
2023-05-20T19:33:48.897Z,97615.34
2023-05-20T19:36:16.661Z,97610.56
2023-05-20T19:38:45.545Z,97628.06
2023-05-20T19:41:13.644Z,97622.41
2023-05-20T19:43:41.073Z,97621.44
2023-05-20T19:46:08.784Z,97621.41
2023-05-20T19:48:36.563Z,97620.66
2023-05-20T19:51:04.500Z,97628.13
2023-05-20T19:53:32.149Z,97630.88
2023-05-20T19:56:00.965Z,97628.81
2023-05-20T19:58:31.790Z,97626.19
2023-05-20T20:00:59.360Z,97630.41
2023-05-20T20:03:26.887Z,97624.44
2023-05-20T20:05:54.438Z,97628.28
2023-05-20T20:08:21.931Z,97627.69
2023-05-20T20:10:49.580Z,97632.16
2023-05-20T20:13:18.484Z,97627.31
2023-05-20T20:15:46.219Z,97624.28
2023-05-20T20:18:13.788Z,97624.31
2023-05-20T20:20:41.336Z,97619.97
2023-05-20T20:23:09.557Z,97624.84
2023-05-20T20:25:38.584Z,97625.03
2023-05-20T20:28:06.494Z,97623.63
2023-05-20T20:30:35.995Z,97618.63
2023-05-20T20:33:06.255Z,97620.34
2023-05-20T20:35:34.246Z,97623.88
2023-05-20T20:38:09.398Z,97618.63
2023-05-20T20:40:42.178Z,97617.81
2023-05-20T20:43:10.863Z,97611.22
2023-05-20T20:45:39.775Z,97620.47
2023-05-20T20:48:07.897Z,97620.06
2023-05-20T20:50:36.258Z,97617.81
2023-05-20T20:53:04.217Z,97622.44
2023-05-20T20:55:31.715Z,97612.69
2023-05-20T20:58:02.540Z,97619.59
2023-05-20T21:00:33.744Z,97623.06
2023-05-20T21:03:02.729Z,97621.53
2023-05-20T21:05:30.273Z,97611.50
2023-05-20T21:07:59.511Z,97613.72
2023-05-20T21:10:29.378Z,97609.84
2023-05-20T21:12:57.091Z,97613.69
2023-05-20T21:15:25.025Z,97614.28
2023-05-20T21:17:53.241Z,97606.38
2023-05-20T21:20:22.161Z,97615.34
2023-05-20T21:22:49.701Z,97612.50
2023-05-20T21:25:17.622Z,97605.75
2023-05-20T21:27:45.197Z,97615.50
2023-05-20T21:30:13.244Z,97608.47
2023-05-20T21:32:40.816Z,97614.22
2023-05-20T21:35:09.609Z,97608.34
2023-05-20T21:37:38.463Z,97607.25
2023-05-20T21:40:07.570Z,97613.16
2023-05-20T21:42:35.267Z,97603.00
2023-05-20T21:45:02.767Z,97598.63
2023-05-20T21:47:30.297Z,97603.63
2023-05-20T21:49:58.001Z,97601.91
2023-05-20T21:52:25.592Z,97597.03
2023-05-20T21:54:54.449Z,97601.91
2023-05-20T21:57:21.946Z,97611.44
2023-05-20T21:59:49.728Z,97598.94
2023-05-20T22:02:17.522Z,97599.25
2023-05-20T22:04:45.072Z,97599.69
2023-05-20T22:07:14.637Z,97601.59
2023-05-20T22:09:42.174Z,97600.00
2023-05-20T22:12:15.195Z,97597.53
2023-05-20T22:14:42.945Z,97592.47
2023-05-20T22:17:10.454Z,97600.06
2023-05-20T22:19:38.004Z,97603.00
2023-05-20T22:22:05.770Z,97596.13
2023-05-20T22:24:33.385Z,97591.50
2023-05-20T22:27:01.612Z,97601.94
2023-05-20T22:29:31.954Z,97589.69
2023-05-20T22:31:59.781Z,97589.69
2023-05-20T22:34:27.371Z,97578.31
2023-05-20T22:36:54.985Z,97598.09
2023-05-20T22:39:22.502Z,97580.56
2023-05-20T22:41:50.125Z,97582.03
2023-05-20T22:44:17.698Z,97567.56
2023-05-20T22:46:46.565Z,97575.91
2023-05-20T22:49:14.328Z,97565.31
2023-05-20T22:51:42.639Z,97559.66
2023-05-20T22:54:10.450Z,97561.94
2023-05-20T22:56:38.054Z,97565.03
2023-05-20T22:59:06.381Z,97562.47
2023-05-20T23:01:33.947Z,97554.94
2023-05-20T23:04:02.981Z,97547.66
2023-05-20T23:06:33.556Z,97546.38
2023-05-20T23:09:01.095Z,97547.75
2023-05-20T23:11:28.584Z,97552.97
2023-05-20T23:13:56.145Z,97540.41
2023-05-20T23:16:26.308Z,97551.31
2023-05-20T23:18:53.920Z,97556.28
2023-05-20T23:21:23.086Z,97551.94
2023-05-20T23:23:50.702Z,97541.41
2023-05-20T23:26:18.295Z,97537.00
2023-05-20T23:28:46.063Z,97550.25
2023-05-20T23:31:14.717Z,97540.66
2023-05-20T23:33:42.392Z,97553.19
2023-05-20T23:36:11.130Z,97545.97
2023-05-20T23:38:40.079Z,97535.22
2023-05-20T23:41:07.605Z,97543.47
2023-05-20T23:43:35.271Z,97539.09
2023-05-20T23:46:02.862Z,97550.50
2023-05-20T23:48:30.493Z,97546.22
2023-05-20T23:51:00.875Z,97529.50
2023-05-20T23:53:28.600Z,97538.31
2023-05-20T23:55:57.535Z,97535.22
2023-05-20T23:58:25.352Z,97527.91
